No.8 Myoushou Maru — JH3281 — position and weather

sailwx.info

Track history (hours):
 
Tides and Currents Weather Stations Pressure Air Temp Water Temp Dewpoint Dewpoint Depression Visibility Wind Speed Wind Dir Waves Ship Positions

No.8 Myoushou Maru

Last reported at 2017-Dec-17 22:52 UTC. Time now 2017-Dec-17 23:15 UTC.
Position N 35°29' E 139°49'.

Length 71 m; draft 4 m.

Type: Tanker. MMSI: 431000594.

Date/timePositionNaut miles runAvg speedWind from/ knotsBaromVisibWave heightAir tempDewpointWater temp
2017-Dec-17 22:52N 35°29' E 139°49'0 0.0
2017-Dec-17 22:22N 35°29' E 139°49'0 0.0
2017-Dec-17 21:52N 35°29' E 139°49'0 0.0
2017-Dec-17 21:28N 35°29' E 139°49'0 0.0
2017-Dec-17 20:55N 35°29' E 139°49'0 0.0
2017-Dec-17 20:25N 35°29' E 139°49'0 0.0
2017-Dec-17 19:58N 35°29' E 139°49'0 0.0
2017-Dec-17 19:28N 35°29' E 139°49'0 0.0
2017-Dec-17 19:00N 35°29' E 139°49'0 0.1
2017-Dec-17 18:30N 35°29' E 139°49'0 0.0
2017-Dec-17 17:57N 35°29' E 139°49'0 0.0
2017-Dec-17 17:30N 35°29' E 139°49'0 0.0
2017-Dec-17 16:57N 35°29' E 139°49'0 0.0
2017-Dec-17 16:30N 35°29' E 139°49'0 0.0
2017-Dec-17 16:00N 35°29' E 139°49'0 0.0
2017-Dec-17 15:28N 35°29' E 139°49'0 0.0
2017-Dec-17 14:58N 35°29' E 139°49'0 0.0
2017-Dec-17 14:28N 35°29' E 139°49'0 0.0
2017-Dec-17 13:58N 35°29' E 139°49'0 0.0
2017-Dec-17 13:28N 35°29' E 139°49'0 0.0
2017-Dec-17 12:43N 35°29' E 139°49'0 0.0
2017-Dec-17 12:28N 35°29' E 139°49'0 0.0
2017-Dec-17 11:58N 35°29' E 139°49'0 0.0
2017-Dec-17 11:28N 35°29' E 139°49'0 0.1
2017-Dec-17 10:52N 35°29' E 139°49'0 0.0
2017-Dec-17 10:28N 35°29' E 139°49'3 6.9
2017-Dec-17 10:00N 35°31' E 139°46'0 0.5
2017-Dec-17 09:30N 35°31' E 139°46'0 0.0
2017-Dec-17 09:00N 35°31' E 139°46'0 0.0
2017-Dec-17 08:31N 35°31' E 139°46'0 0.0
2017-Dec-17 08:00N 35°31' E 139°46'0 0.0
2017-Dec-17 07:31N 35°31' E 139°46'0 0.0
2017-Dec-17 07:01N 35°31' E 139°46'0 0.0
2017-Dec-17 06:31N 35°31' E 139°46'0 0.0
2017-Dec-17 06:01N 35°31' E 139°46'0 0.0
2017-Dec-17 05:30N 35°31' E 139°46'0 0.0
2017-Dec-17 05:00N 35°31' E 139°46'3 5.3
2017-Dec-17 04:31N 35°30' E 139°49'1 0.7
2017-Dec-17 02:45N 35°31' E 139°51'2 7.9
2017-Dec-17 02:30N 35°32' E 139°53'712.4
2017-Dec-17 01:58N 35°37' E 139°58'4 7.9
2017-Dec-17 01:30N 35°41' E 139°56'0 0.0
2017-Dec-17 00:57N 35°41' E 139°56'0 0.0
2017-Dec-17 00:29N 35°41' E 139°56'0 0.0
2017-Dec-17 00:00N 35°41' E 139°56'0 0.0
2017-Dec-16 23:30N 35°41' E 139°56'3 4.9
2017-Dec-16 22:59N 35°39' E 139°58'4 8.1
2017-Dec-16 22:30N 35°36' E 139°55'0 0.0
2017-Dec-16 07:00N 35°36' E 139°55'5 9.2
2017-Dec-16 06:24N 35°31' E 139°58'4 8.9
2017-Dec-16 06:00N 35°28' E 140°01'0 0.1
2017-Dec-16 05:14N 35°28' E 140°01'0 0.0
2017-Dec-16 04:58N 35°28' E 140°01'0 0.0
2017-Dec-16 02:18N 35°28' E 140°01'2 5.1
2017-Dec-16 02:00N 35°30' E 140°00'612.2
2017-Dec-16 01:30N 35°36' E 139°59'5 1.5
2017-Dec-15 22:10N 35°40' E 139°57'3 7.3
2017-Dec-15 21:44N 35°38' E 139°58'2 9.9
2017-Dec-15 21:30N 35°36' E 139°56'1 0.1
2017-Dec-15 11:15N 35°36' E 139°55'310.0
2017-Dec-15 10:59N 35°33' E 139°57'510.3
2017-Dec-15 10:30N 35°29' E 140°00'1 1.8
2017-Dec-15 09:56N 35°28' E 140°01'0 0.0
2017-Dec-15 09:30N 35°28' E 140°01'0 0.0
2017-Dec-15 08:56N 35°28' E 140°01'0 0.0
2017-Dec-15 08:19N 35°28' E 140°01'0 0.0
2017-Dec-15 08:00N 35°28' E 140°01'0 0.0
2017-Dec-15 07:27N 35°28' E 140°01'0 0.0
2017-Dec-15 06:34N 35°28' E 140°01'0 0.3
2017-Dec-15 06:25N 35°28' E 140°01'2 4.8
2017-Dec-15 06:00N 35°29' E 139°59'1 2.3
2017-Dec-15 05:31N 35°29' E 139°57'4 7.6
2017-Dec-15 05:01N 35°28' E 139°53'510.9
2017-Dec-15 04:30N 35°26' E 139°47'5 9.8
2017-Dec-15 04:00N 35°29' E 139°42'0 0.0
2017-Dec-15 02:30N 35°29' E 139°42'0 0.0
2017-Dec-15 01:00N 35°29' E 139°42'0 0.0
2017-Dec-15 00:30N 35°29' E 139°42'0 0.0
2017-Dec-14 18:30N 35°29' E 139°42'0 0.0
2017-Dec-14 18:00N 35°29' E 139°42'0 0.0
2017-Dec-14 17:30N 35°29' E 139°42'0 0.0
2017-Dec-14 17:00N 35°29' E 139°42'0 0.0
2017-Dec-14 16:30N 35°29' E 139°42'0 0.0
2017-Dec-14 16:00N 35°29' E 139°42'0 0.0
2017-Dec-14 15:00N 35°29' E 139°42'0 0.0
2017-Dec-14 14:31N 35°29' E 139°42'0 0.0
2017-Dec-14 14:00N 35°29' E 139°42'0 0.0
2017-Dec-14 13:30N 35°29' E 139°42'0 0.0
2017-Dec-14 13:00N 35°29' E 139°42'0 0.0
2017-Dec-14 12:30N 35°29' E 139°42'0 0.0
2017-Dec-14 12:00N 35°29' E 139°42'0 0.0
2017-Dec-14 11:30N 35°29' E 139°42'0 0.0
2017-Dec-14 11:01N 35°29' E 139°42'0 0.0
2017-Dec-14 10:30N 35°29' E 139°42'0 0.0
2017-Dec-14 10:00N 35°29' E 139°42'0 0.0
2017-Dec-14 09:31N 35°29' E 139°42'0 0.0
2017-Dec-14 09:01N 35°29' E 139°42'0 0.0
2017-Dec-14 08:31N 35°29' E 139°42'0 0.0
2017-Dec-14 08:00N 35°29' E 139°42'0 0.0
2017-Dec-14 07:30N 35°29' E 139°42'0 0.0
2017-Dec-14 07:00N 35°29' E 139°42'0 0.0
2017-Dec-14 06:30N 35°29' E 139°42'0 0.0
2017-Dec-14 06:00N 35°29' E 139°42'0 0.0
2017-Dec-14 05:30N 35°29' E 139°42'0 0.0
2017-Dec-14 05:01N 35°29' E 139°42'3 5.2
2017-Dec-14 04:30N 35°27' E 139°43'4 7.2
2017-Dec-14 04:00N 35°24' E 139°39'0 0.2
2017-Dec-14 03:31N 35°25' E 139°39'0 0.0
2017-Dec-14 03:00N 35°25' E 139°39'0 0.0
2017-Dec-14 02:31N 35°25' E 139°39'0 0.0
2017-Dec-14 02:00N 35°25' E 139°39'1 1.5
2017-Dec-14 01:30N 35°24' E 139°40'2 4.5
2017-Dec-14 01:00N 35°25' E 139°42'4 8.3
2017-Dec-14 00:30N 35°29' E 139°42'0 0.1
2017-Dec-14 00:00N 35°29' E 139°42'0 0.0
2017-Dec-13 23:30N 35°29' E 139°42'0 0.0
2017-Dec-13 23:00N 35°29' E 139°42'0 0.0
2017-Dec-13 22:30N 35°29' E 139°42'0 0.0
2017-Dec-13 22:00N 35°29' E 139°42'0 0.0
2017-Dec-13 21:30N 35°29' E 139°42'0 0.0
2017-Dec-13 21:00N 35°29' E 139°42'0 0.0
2017-Dec-13 20:30N 35°29' E 139°42'0 0.0
2017-Dec-13 20:01N 35°29' E 139°42'0 0.0
2017-Dec-13 19:30N 35°29' E 139°42'0 0.0
2017-Dec-13 19:00N 35°29' E 139°42'0 0.0
2017-Dec-13 18:30N 35°29' E 139°42'0 0.0
2017-Dec-13 18:00N 35°29' E 139°42'0 0.0
2017-Dec-13 17:30N 35°29' E 139°42'0 0.0
2017-Dec-13 17:00N 35°29' E 139°42'0 0.0
2017-Dec-13 16:31N 35°29' E 139°42'0 0.0
2017-Dec-13 16:00N 35°29' E 139°42'0 0.0
2017-Dec-13 15:30N 35°29' E 139°42'0 0.0
2017-Dec-13 15:01N 35°29' E 139°42'0 0.0
2017-Dec-13 14:30N 35°29' E 139°42'0 0.0
2017-Dec-13 14:01N 35°29' E 139°42'0 0.0
2017-Dec-13 13:30N 35°29' E 139°42'0 0.0
2017-Dec-13 13:00N 35°29' E 139°42'0 0.0
2017-Dec-13 12:30N 35°29' E 139°42'0 0.0
2017-Dec-13 12:00N 35°29' E 139°42'0 0.0
2017-Dec-13 11:31N 35°29' E 139°42'0 0.0
2017-Dec-13 11:00N 35°29' E 139°42'0 0.0
2017-Dec-13 10:30N 35°29' E 139°42'0 0.0
2017-Dec-13 10:01N 35°29' E 139°42'0 0.0
2017-Dec-13 09:30N 35°29' E 139°42'0 0.0
2017-Dec-13 09:01N 35°29' E 139°42'0 0.0
2017-Dec-13 08:31N 35°29' E 139°42'0 0.0
2017-Dec-13 08:00N 35°29' E 139°42'0 0.0
2017-Dec-13 07:30N 35°29' E 139°42'4 8.1
2017-Dec-13 07:00N 35°31' E 139°46'0 0.5
2017-Dec-13 06:30N 35°31' E 139°46'0 0.0
2017-Dec-13 06:01N 35°31' E 139°46'0 0.0
2017-Dec-13 05:30N 35°31' E 139°46'0 0.0
2017-Dec-13 05:00N 35°31' E 139°46'0 0.0
2017-Dec-13 04:30N 35°31' E 139°46'0 0.0
2017-Dec-13 04:00N 35°31' E 139°46'0 0.0
2017-Dec-13 03:30N 35°31' E 139°46'0 0.0
2017-Dec-13 03:00N 35°31' E 139°46'0 0.0
2017-Dec-13 02:30N 35°31' E 139°46'1 1.3
2017-Dec-13 02:01N 35°30' E 139°47'4 8.4
2017-Dec-13 01:31N 35°31' E 139°52'712.1
2017-Dec-13 00:54N 35°37' E 139°57'4 9.2
2017-Dec-13 00:30N 35°41' E 139°56'0 0.1
2017-Dec-13 00:00N 35°41' E 139°56'0 0.0
2017-Dec-12 23:30N 35°41' E 139°56'0 0.0
2017-Dec-12 22:59N 35°41' E 139°56'0 0.0
2017-Dec-12 22:27N 35°41' E 139°56'1 1.2
2017-Dec-12 21:56N 35°40' E 139°57'3 8.0
2017-Dec-12 21:30N 35°37' E 139°57'3 0.2
2017-Dec-12 08:39N 35°36' E 139°54'2 6.7
2017-Dec-12 08:24N 35°35' E 139°56'510.3
2017-Dec-12 07:56N 35°31' E 139°60'2 4.5
2017-Dec-12 07:27N 35°30' E 140°02'0 0.0
2017-Dec-12 06:56N 35°30' E 140°02'0 0.0
2017-Dec-12 06:29N 35°30' E 140°02'0 0.0
2017-Dec-12 05:54N 35°30' E 140°02'0 0.0
2017-Dec-12 05:29N 35°30' E 140°02'0 0.0
2017-Dec-12 04:59N 35°30' E 140°02'0 0.0
2017-Dec-12 04:26N 35°30' E 140°02'2 3.4
2017-Dec-12 04:00N 35°31' E 140°00'2 4.9
2017-Dec-12 03:30N 35°30' E 139°57'612.3
2017-Dec-12 03:01N 35°27' E 139°51'612.4
2017-Dec-12 02:30N 35°25' E 139°44'3 6.9
2017-Dec-12 02:01N 35°24' E 139°40'0 0.0
2017-Dec-12 01:31N 35°24' E 139°40'0 0.0
2017-Dec-12 01:01N 35°24' E 139°40'0 0.0
2017-Dec-12 00:30N 35°24' E 139°40'0 0.0
2017-Dec-12 00:01N 35°24' E 139°40'0 0.7
2017-Dec-11 23:31N 35°24' E 139°40'2 4.4
2017-Dec-11 23:00N 35°25' E 139°42'4 8.6
2017-Dec-11 22:30N 35°29' E 139°42'0 0.1
2017-Dec-11 22:01N 35°29' E 139°42'0 0.0
2017-Dec-11 21:30N 35°29' E 139°42'0 0.0
2017-Dec-11 21:00N 35°29' E 139°42'0 0.0
2017-Dec-11 20:30N 35°29' E 139°42'0 0.0
2017-Dec-11 20:00N 35°29' E 139°42'0 0.0
2017-Dec-11 19:30N 35°29' E 139°42'0 0.0
2017-Dec-11 19:00N 35°29' E 139°42'0 0.0
2017-Dec-11 18:31N 35°29' E 139°42'0 0.0
2017-Dec-11 18:00N 35°29' E 139°42'0 0.0
2017-Dec-11 17:31N 35°29' E 139°42'0 0.0
2017-Dec-11 17:00N 35°29' E 139°42'0 0.0
2017-Dec-11 16:30N 35°29' E 139°42'0 0.0
2017-Dec-11 16:01N 35°29' E 139°42'0 0.0
2017-Dec-11 15:31N 35°29' E 139°42'0 0.0
2017-Dec-11 15:00N 35°29' E 139°42'0 0.0
2017-Dec-11 14:30N 35°29' E 139°42'0 0.0
2017-Dec-11 14:00N 35°29' E 139°42'0 0.0
2017-Dec-11 13:31N 35°29' E 139°42'0 0.0
2017-Dec-11 13:01N 35°29' E 139°42'0 0.0
2017-Dec-11 12:31N 35°29' E 139°42'0 0.0
2017-Dec-11 12:00N 35°29' E 139°42'0 0.0
2017-Dec-11 11:31N 35°29' E 139°42'0 0.0
2017-Dec-11 11:01N 35°29' E 139°42'0 0.0
2017-Dec-11 10:30N 35°29' E 139°42'0 0.0
2017-Dec-11 10:01N 35°29' E 139°42'0 0.0
2017-Dec-11 09:30N 35°29' E 139°42'0 0.0
2017-Dec-11 09:00N 35°29' E 139°42'0 0.0
2017-Dec-11 08:30N 35°29' E 139°42'0 0.0
2017-Dec-11 08:00N 35°29' E 139°42'0 0.0
2017-Dec-11 07:31N 35°29' E 139°42'0 0.0
2017-Dec-11 07:01N 35°29' E 139°42'0 0.0
2017-Dec-11 06:30N 35°29' E 139°42'0 0.0
2017-Dec-11 06:01N 35°29' E 139°42'0 0.0
2017-Dec-11 05:31N 35°29' E 139°42'0 0.0
2017-Dec-11 05:00N 35°29' E 139°42'0 0.0
2017-Dec-11 04:31N 35°29' E 139°42'2 3.1
2017-Dec-11 04:00N 35°30' E 139°43'3 5.3
2017-Dec-11 03:30N 35°31' E 139°46'0 0.0
2017-Dec-11 03:00N 35°31' E 139°46'0 0.0
2017-Dec-11 02:30N 35°31' E 139°46'0 0.0
2017-Dec-11 02:00N 35°31' E 139°46'0 0.0
2017-Dec-11 01:31N 35°31' E 139°46'0 0.0
2017-Dec-11 01:00N 35°31' E 139°46'0 0.0
2017-Dec-11 00:31N 35°31' E 139°46'0 0.0
2017-Dec-11 00:00N 35°31' E 139°46'0 0.0
2017-Dec-10 23:30N 35°31' E 139°46'0 0.0
2017-Dec-10 23:01N 35°31' E 139°46'0 0.5
2017-Dec-10 22:30N 35°31' E 139°46'3 5.5
2017-Dec-10 22:01N 35°29' E 139°49'0 0.2
2017-Dec-10 21:30N 35°29' E 139°49'0 0.0
2017-Dec-10 21:00N 35°29' E 139°49'0 0.0
2017-Dec-10 20:30N 35°29' E 139°49'0 0.0
2017-Dec-10 20:00N 35°29' E 139°49'0 0.0
2017-Dec-10 19:28N 35°29' E 139°49'0 0.1
2017-Dec-10 18:52N 35°29' E 139°49'0 0.0
2017-Dec-10 18:28N 35°29' E 139°49'0 0.0
2017-Dec-10 17:55N 35°29' E 139°49'0 0.0
2017-Dec-10 17:25N 35°29' E 139°49'0 0.0
2017-Dec-10 16:55N 35°29' E 139°49'0 0.0
2017-Dec-10 16:25N 35°29' E 139°49'0 0.0
2017-Dec-10 15:56N 35°29' E 139°49'0 0.0
2017-Dec-10 15:29N 35°29' E 139°49'0 0.0
2017-Dec-10 14:53N 35°29' E 139°49'0 0.0
2017-Dec-10 14:23N 35°29' E 139°49'0 0.0
2017-Dec-10 13:59N 35°29' E 139°49'0 0.0
2017-Dec-10 13:29N 35°29' E 139°49'0 0.0
2017-Dec-10 12:50N 35°29' E 139°49'0 0.0
2017-Dec-10 12:23N 35°29' E 139°49'0 0.0
2017-Dec-10 11:59N 35°29' E 139°49'0 0.0
2017-Dec-10 11:26N 35°29' E 139°49'0 0.0
2017-Dec-10 10:59N 35°29' E 139°49'0 0.0
2017-Dec-10 10:27N 35°29' E 139°49'0 0.0
2017-Dec-10 09:56N 35°29' E 139°49'0 0.0
2017-Dec-10 09:23N 35°29' E 139°49'0 0.0
2017-Dec-10 08:56N 35°29' E 139°49'0 0.3
2017-Dec-10 08:30N 35°29' E 139°49'5 9.1
2017-Dec-10 08:00N 35°32' E 139°53'9 3.4
2017-Dec-10 05:23N 35°41' E 139°56'2 1.8
2017-Dec-10 04:28N 35°39' E 139°58'510.0
2017-Dec-10 03:57N 35°34' E 139°60'510.1
2017-Dec-10 03:30N 35°30' E 140°01'1 1.0
2017-Dec-10 02:57N 35°30' E 140°02'0 0.0
2017-Dec-10 02:30N 35°30' E 140°02'0 0.0
2017-Dec-10 02:00N 35°30' E 140°02'0 0.0
2017-Dec-10 01:30N 35°30' E 140°02'0 0.0
2017-Dec-10 01:00N 35°30' E 140°02'1 2.8
2017-Dec-10 00:30N 35°30' E 140°00'5 9.6
2017-Dec-10 00:00N 35°29' E 139°55'611.8
2017-Dec-09 23:30N 35°27' E 139°48'510.5
2017-Dec-09 23:00N 35°29' E 139°42'0 0.3
2017-Dec-09 22:30N 35°29' E 139°42'0 0.0
2017-Dec-09 22:00N 35°29' E 139°42'0 0.0
2017-Dec-09 21:30N 35°29' E 139°42'0 0.0
2017-Dec-09 21:00N 35°29' E 139°42'0 0.0
2017-Dec-09 20:30N 35°29' E 139°42'0 0.0
2017-Dec-09 20:00N 35°29' E 139°42'0 0.0
2017-Dec-09 19:30N 35°29' E 139°42'0 0.0
2017-Dec-09 19:01N 35°29' E 139°42'0 0.0
2017-Dec-09 18:30N 35°29' E 139°42'0 0.0
2017-Dec-09 18:00N 35°29' E 139°42'0 0.0
2017-Dec-09 17:30N 35°29' E 139°42'0 0.0
2017-Dec-09 17:00N 35°29' E 139°42'0 0.0
2017-Dec-09 16:30N 35°29' E 139°42'0 0.0
2017-Dec-09 16:00N 35°29' E 139°42'0 0.0
2017-Dec-09 15:31N 35°29' E 139°42'0 0.0
2017-Dec-09 15:00N 35°29' E 139°42'0 0.0
2017-Dec-09 14:31N 35°29' E 139°42'0 0.0
2017-Dec-09 14:00N 35°29' E 139°42'0 0.0
2017-Dec-09 13:31N 35°29' E 139°42'0 0.0
2017-Dec-09 13:00N 35°29' E 139°42'0 0.0
2017-Dec-09 12:30N 35°29' E 139°42'0 0.0
2017-Dec-09 12:00N 35°29' E 139°42'0 0.0
2017-Dec-09 11:30N 35°29' E 139°42'0 0.0
2017-Dec-09 11:00N 35°29' E 139°42'0 0.0
2017-Dec-09 10:30N 35°29' E 139°42'0 0.0
2017-Dec-09 10:00N 35°29' E 139°42'0 0.0
2017-Dec-09 09:31N 35°29' E 139°42'0 0.0
2017-Dec-09 09:01N 35°29' E 139°42'0 0.0
2017-Dec-09 08:30N 35°29' E 139°42'0 0.0
2017-Dec-09 08:00N 35°29' E 139°42'0 0.0
2017-Dec-09 07:30N 35°29' E 139°42'0 0.0
2017-Dec-09 07:00N 35°29' E 139°42'0 0.0
2017-Dec-09 06:31N 35°29' E 139°42'0 0.0
2017-Dec-09 06:00N 35°29' E 139°42'0 0.0
2017-Dec-09 05:31N 35°29' E 139°42'0 0.0
2017-Dec-09 05:01N 35°29' E 139°42'0 0.0
2017-Dec-09 04:30N 35°29' E 139°42'0 0.0
2017-Dec-09 04:00N 35°29' E 139°42'0 0.0
2017-Dec-09 03:30N 35°29' E 139°42'0 0.0
2017-Dec-09 03:00N 35°29' E 139°42'1 1.8
2017-Dec-09 02:31N 35°28' E 139°42'510.4
2017-Dec-09 02:00N 35°29' E 139°48'1311.4
2017-Dec-09 00:53N 35°40' E 139°57'1 1.9
2017-Dec-09 00:16N 35°41' E 139°56'0 0.0
2017-Dec-08 23:47N 35°41' E 139°56'3 1.3
2017-Dec-08 21:38N 35°38' E 139°58'1 6.1
2017-Dec-08 21:29N 35°38' E 139°58'3 5.9
2017-Dec-08 20:58N 35°36' E 139°55'0 0.0
2017-Dec-08 20:28N 35°36' E 139°55'0 0.0
2017-Dec-08 08:04N 35°36' E 139°55'0 0.1
2017-Dec-08 07:59N 35°36' E 139°55'3 6.5
2017-Dec-08 07:30N 35°34' E 139°57'510.0
2017-Dec-08 07:00N 35°30' E 140°02'0 0.5
2017-Dec-08 06:30N 35°30' E 140°02'0 0.0
2017-Dec-08 06:00N 35°30' E 140°02'0 0.0
2017-Dec-08 05:30N 35°30' E 140°02'0 0.0
2017-Dec-08 04:59N 35°30' E 140°02'0 0.0
2017-Dec-08 04:29N 35°30' E 140°02'0 0.0
2017-Dec-08 03:58N 35°30' E 140°02'0 0.1
2017-Dec-08 03:30N 35°30' E 140°02'2 3.3
2017-Dec-08 03:00N 35°31' E 140°00'1 2.0
2017-Dec-08 02:29N 35°31' E 139°60'510.5
2017-Dec-08 02:00N 35°37' E 139°59'4 7.4
2017-Dec-08 01:24N 35°41' E 139°56'0 0.0
2017-Dec-08 00:46N 35°41' E 139°56'0 0.0
2017-Dec-08 00:27N 35°41' E 139°56'0 0.0
2017-Dec-07 23:51N 35°41' E 139°56'1 0.6
2017-Dec-07 22:56N 35°40' E 139°57'  
Track history (hours):
 
Tides and Currents Weather Stations Pressure Air Temp Water Temp Dewpoint Dewpoint Depression Visibility Wind Speed Wind Dir Waves Ship Positions

No.8 Myoushou Maru

Last reported at 2017-Dec-17 22:52 UTC. Time now 2017-Dec-17 23:15 UTC.
Position N 35°29' E 139°49'.

Length 71 m; draft 4 m.

Type: Tanker. MMSI: 431000594.

Date/timePositionNaut miles runAvg speedWind from/ knotsBaromVisibWave heightAir tempDewpointWater temp
2017-Dec-17 22:52N 35°29' E 139°49'0 0.0
2017-Dec-17 22:22N 35°29' E 139°49'0 0.0
2017-Dec-17 21:52N 35°29' E 139°49'0 0.0
2017-Dec-17 21:28N 35°29' E 139°49'0 0.0
2017-Dec-17 20:55N 35°29' E 139°49'0 0.0
2017-Dec-17 20:25N 35°29' E 139°49'0 0.0
2017-Dec-17 19:58N 35°29' E 139°49'0 0.0
2017-Dec-17 19:28N 35°29' E 139°49'0 0.0
2017-Dec-17 19:00N 35°29' E 139°49'0 0.1
2017-Dec-17 18:30N 35°29' E 139°49'0 0.0
2017-Dec-17 17:57N 35°29' E 139°49'0 0.0
2017-Dec-17 17:30N 35°29' E 139°49'0 0.0
2017-Dec-17 16:57N 35°29' E 139°49'0 0.0
2017-Dec-17 16:30N 35°29' E 139°49'0 0.0
2017-Dec-17 16:00N 35°29' E 139°49'0 0.0
2017-Dec-17 15:28N 35°29' E 139°49'0 0.0
2017-Dec-17 14:58N 35°29' E 139°49'0 0.0
2017-Dec-17 14:28N 35°29' E 139°49'0 0.0
2017-Dec-17 13:58N 35°29' E 139°49'0 0.0
2017-Dec-17 13:28N 35°29' E 139°49'0 0.0
2017-Dec-17 12:43N 35°29' E 139°49'0 0.0
2017-Dec-17 12:28N 35°29' E 139°49'0 0.0
2017-Dec-17 11:58N 35°29' E 139°49'0 0.0
2017-Dec-17 11:28N 35°29' E 139°49'0 0.1
2017-Dec-17 10:52N 35°29' E 139°49'0 0.0
2017-Dec-17 10:28N 35°29' E 139°49'3 6.9
2017-Dec-17 10:00N 35°31' E 139°46'0 0.5
2017-Dec-17 09:30N 35°31' E 139°46'0 0.0
2017-Dec-17 09:00N 35°31' E 139°46'0 0.0
2017-Dec-17 08:31N 35°31' E 139°46'0 0.0
2017-Dec-17 08:00N 35°31' E 139°46'0 0.0
2017-Dec-17 07:31N 35°31' E 139°46'0 0.0
2017-Dec-17 07:01N 35°31' E 139°46'0 0.0
2017-Dec-17 06:31N 35°31' E 139°46'0 0.0
2017-Dec-17 06:01N 35°31' E 139°46'0 0.0
2017-Dec-17 05:30N 35°31' E 139°46'0 0.0
2017-Dec-17 05:00N 35°31' E 139°46'3 5.3
2017-Dec-17 04:31N 35°30' E 139°49'1 0.7
2017-Dec-17 02:45N 35°31' E 139°51'2 7.9
2017-Dec-17 02:30N 35°32' E 139°53'712.4
2017-Dec-17 01:58N 35°37' E 139°58'4 7.9
2017-Dec-17 01:30N 35°41' E 139°56'0 0.0
2017-Dec-17 00:57N 35°41' E 139°56'0 0.0
2017-Dec-17 00:29N 35°41' E 139°56'0 0.0
2017-Dec-17 00:00N 35°41' E 139°56'0 0.0
2017-Dec-16 23:30N 35°41' E 139°56'3 4.9
2017-Dec-16 22:59N 35°39' E 139°58'4 8.1
2017-Dec-16 22:30N 35°36' E 139°55'0 0.0
2017-Dec-16 07:00N 35°36' E 139°55'5 9.2
2017-Dec-16 06:24N 35°31' E 139°58'4 8.9
2017-Dec-16 06:00N 35°28' E 140°01'0 0.1
2017-Dec-16 05:14N 35°28' E 140°01'0 0.0
2017-Dec-16 04:58N 35°28' E 140°01'0 0.0
2017-Dec-16 02:18N 35°28' E 140°01'2 5.1
2017-Dec-16 02:00N 35°30' E 140°00'612.2
2017-Dec-16 01:30N 35°36' E 139°59'5 1.5
2017-Dec-15 22:10N 35°40' E 139°57'3 7.3
2017-Dec-15 21:44N 35°38' E 139°58'2 9.9
2017-Dec-15 21:30N 35°36' E 139°56'1 0.1
2017-Dec-15 11:15N 35°36' E 139°55'310.0
2017-Dec-15 10:59N 35°33' E 139°57'510.3
2017-Dec-15 10:30N 35°29' E 140°00'1 1.8
2017-Dec-15 09:56N 35°28' E 140°01'0 0.0
2017-Dec-15 09:30N 35°28' E 140°01'0 0.0
2017-Dec-15 08:56N 35°28' E 140°01'0 0.0
2017-Dec-15 08:19N 35°28' E 140°01'0 0.0
2017-Dec-15 08:00N 35°28' E 140°01'0 0.0
2017-Dec-15 07:27N 35°28' E 140°01'0 0.0
2017-Dec-15 06:34N 35°28' E 140°01'0 0.3
2017-Dec-15 06:25N 35°28' E 140°01'2 4.8
2017-Dec-15 06:00N 35°29' E 139°59'1 2.3
2017-Dec-15 05:31N 35°29' E 139°57'4 7.6
2017-Dec-15 05:01N 35°28' E 139°53'510.9
2017-Dec-15 04:30N 35°26' E 139°47'5 9.8
2017-Dec-15 04:00N 35°29' E 139°42'0 0.0
2017-Dec-15 02:30N 35°29' E 139°42'0 0.0
2017-Dec-15 01:00N 35°29' E 139°42'0 0.0
2017-Dec-15 00:30N 35°29' E 139°42'0 0.0
2017-Dec-14 18:30N 35°29' E 139°42'0 0.0
2017-Dec-14 18:00N 35°29' E 139°42'0 0.0
2017-Dec-14 17:30N 35°29' E 139°42'0 0.0
2017-Dec-14 17:00N 35°29' E 139°42'0 0.0
2017-Dec-14 16:30N 35°29' E 139°42'0 0.0
2017-Dec-14 16:00N 35°29' E 139°42'0 0.0
2017-Dec-14 15:00N 35°29' E 139°42'0 0.0
2017-Dec-14 14:31N 35°29' E 139°42'0 0.0
2017-Dec-14 14:00N 35°29' E 139°42'0 0.0
2017-Dec-14 13:30N 35°29' E 139°42'0 0.0
2017-Dec-14 13:00N 35°29' E 139°42'0 0.0
2017-Dec-14 12:30N 35°29' E 139°42'0 0.0
2017-Dec-14 12:00N 35°29' E 139°42'0 0.0
2017-Dec-14 11:30N 35°29' E 139°42'0 0.0
2017-Dec-14 11:01N 35°29' E 139°42'0 0.0
2017-Dec-14 10:30N 35°29' E 139°42'0 0.0
2017-Dec-14 10:00N 35°29' E 139°42'0 0.0
2017-Dec-14 09:31N 35°29' E 139°42'0 0.0
2017-Dec-14 09:01N 35°29' E 139°42'0 0.0
2017-Dec-14 08:31N 35°29' E 139°42'0 0.0
2017-Dec-14 08:00N 35°29' E 139°42'0 0.0
2017-Dec-14 07:30N 35°29' E 139°42'0 0.0
2017-Dec-14 07:00N 35°29' E 139°42'0 0.0
2017-Dec-14 06:30N 35°29' E 139°42'0 0.0
2017-Dec-14 06:00N 35°29' E 139°42'0 0.0
2017-Dec-14 05:30N 35°29' E 139°42'0 0.0
2017-Dec-14 05:01N 35°29' E 139°42'3 5.2
2017-Dec-14 04:30N 35°27' E 139°43'4 7.2
2017-Dec-14 04:00N 35°24' E 139°39'0 0.2
2017-Dec-14 03:31N 35°25' E 139°39'0 0.0
2017-Dec-14 03:00N 35°25' E 139°39'0 0.0
2017-Dec-14 02:31N 35°25' E 139°39'0 0.0
2017-Dec-14 02:00N 35°25' E 139°39'1 1.5
2017-Dec-14 01:30N 35°24' E 139°40'2 4.5
2017-Dec-14 01:00N 35°25' E 139°42'4 8.3
2017-Dec-14 00:30N 35°29' E 139°42'0 0.1
2017-Dec-14 00:00N 35°29' E 139°42'0 0.0
2017-Dec-13 23:30N 35°29' E 139°42'0 0.0
2017-Dec-13 23:00N 35°29' E 139°42'0 0.0
2017-Dec-13 22:30N 35°29' E 139°42'0 0.0
2017-Dec-13 22:00N 35°29' E 139°42'0 0.0
2017-Dec-13 21:30N 35°29' E 139°42'0 0.0
2017-Dec-13 21:00N 35°29' E 139°42'0 0.0
2017-Dec-13 20:30N 35°29' E 139°42'0 0.0
2017-Dec-13 20:01N 35°29' E 139°42'0 0.0
2017-Dec-13 19:30N 35°29' E 139°42'0 0.0
2017-Dec-13 19:00N 35°29' E 139°42'0 0.0
2017-Dec-13 18:30N 35°29' E 139°42'0 0.0
2017-Dec-13 18:00N 35°29' E 139°42'0 0.0
2017-Dec-13 17:30N 35°29' E 139°42'0 0.0
2017-Dec-13 17:00N 35°29' E 139°42'0 0.0
2017-Dec-13 16:31N 35°29' E 139°42'0 0.0
2017-Dec-13 16:00N 35°29' E 139°42'0 0.0
2017-Dec-13 15:30N 35°29' E 139°42'0 0.0
2017-Dec-13 15:01N 35°29' E 139°42'0 0.0
2017-Dec-13 14:30N 35°29' E 139°42'0 0.0
2017-Dec-13 14:01N 35°29' E 139°42'0 0.0
2017-Dec-13 13:30N 35°29' E 139°42'0 0.0
2017-Dec-13 13:00N 35°29' E 139°42'0 0.0
2017-Dec-13 12:30N 35°29' E 139°42'0 0.0
2017-Dec-13 12:00N 35°29' E 139°42'0 0.0
2017-Dec-13 11:31N 35°29' E 139°42'0 0.0
2017-Dec-13 11:00N 35°29' E 139°42'0 0.0
2017-Dec-13 10:30N 35°29' E 139°42'0 0.0
2017-Dec-13 10:01N 35°29' E 139°42'0 0.0
2017-Dec-13 09:30N 35°29' E 139°42'0 0.0
2017-Dec-13 09:01N 35°29' E 139°42'0 0.0
2017-Dec-13 08:31N 35°29' E 139°42'0 0.0
2017-Dec-13 08:00N 35°29' E 139°42'0 0.0
2017-Dec-13 07:30N 35°29' E 139°42'4 8.1
2017-Dec-13 07:00N 35°31' E 139°46'0 0.5
2017-Dec-13 06:30N 35°31' E 139°46'0 0.0
2017-Dec-13 06:01N 35°31' E 139°46'0 0.0
2017-Dec-13 05:30N 35°31' E 139°46'0 0.0
2017-Dec-13 05:00N 35°31' E 139°46'0 0.0
2017-Dec-13 04:30N 35°31' E 139°46'0 0.0
2017-Dec-13 04:00N 35°31' E 139°46'0 0.0
2017-Dec-13 03:30N 35°31' E 139°46'0 0.0
2017-Dec-13 03:00N 35°31' E 139°46'0 0.0
2017-Dec-13 02:30N 35°31' E 139°46'1 1.3
2017-Dec-13 02:01N 35°30' E 139°47'4 8.4
2017-Dec-13 01:31N 35°31' E 139°52'712.1
2017-Dec-13 00:54N 35°37' E 139°57'4 9.2
2017-Dec-13 00:30N 35°41' E 139°56'0 0.1
2017-Dec-13 00:00N 35°41' E 139°56'0 0.0
2017-Dec-12 23:30N 35°41' E 139°56'0 0.0
2017-Dec-12 22:59N 35°41' E 139°56'0 0.0
2017-Dec-12 22:27N 35°41' E 139°56'1 1.2
2017-Dec-12 21:56N 35°40' E 139°57'3 8.0
2017-Dec-12 21:30N 35°37' E 139°57'3 0.2
2017-Dec-12 08:39N 35°36' E 139°54'2 6.7
2017-Dec-12 08:24N 35°35' E 139°56'510.3
2017-Dec-12 07:56N 35°31' E 139°60'2 4.5
2017-Dec-12 07:27N 35°30' E 140°02'0 0.0
2017-Dec-12 06:56N 35°30' E 140°02'0 0.0
2017-Dec-12 06:29N 35°30' E 140°02'0 0.0
2017-Dec-12 05:54N 35°30' E 140°02'0 0.0
2017-Dec-12 05:29N 35°30' E 140°02'0 0.0
2017-Dec-12 04:59N 35°30' E 140°02'0 0.0
2017-Dec-12 04:26N 35°30' E 140°02'2 3.4
2017-Dec-12 04:00N 35°31' E 140°00'2 4.9
2017-Dec-12 03:30N 35°30' E 139°57'612.3
2017-Dec-12 03:01N 35°27' E 139°51'612.4
2017-Dec-12 02:30N 35°25' E 139°44'3 6.9
2017-Dec-12 02:01N 35°24' E 139°40'0 0.0
2017-Dec-12 01:31N 35°24' E 139°40'0 0.0
2017-Dec-12 01:01N 35°24' E 139°40'0 0.0
2017-Dec-12 00:30N 35°24' E 139°40'0 0.0
2017-Dec-12 00:01N 35°24' E 139°40'0 0.7
2017-Dec-11 23:31N 35°24' E 139°40'2 4.4
2017-Dec-11 23:00N 35°25' E 139°42'4 8.6
2017-Dec-11 22:30N 35°29' E 139°42'0 0.1
2017-Dec-11 22:01N 35°29' E 139°42'0 0.0
2017-Dec-11 21:30N 35°29' E 139°42'0 0.0
2017-Dec-11 21:00N 35°29' E 139°42'0 0.0
2017-Dec-11 20:30N 35°29' E 139°42'0 0.0
2017-Dec-11 20:00N 35°29' E 139°42'0 0.0
2017-Dec-11 19:30N 35°29' E 139°42'0 0.0
2017-Dec-11 19:00N 35°29' E 139°42'0 0.0
2017-Dec-11 18:31N 35°29' E 139°42'0 0.0
2017-Dec-11 18:00N 35°29' E 139°42'0 0.0
2017-Dec-11 17:31N 35°29' E 139°42'0 0.0
2017-Dec-11 17:00N 35°29' E 139°42'0 0.0
2017-Dec-11 16:30N 35°29' E 139°42'0 0.0
2017-Dec-11 16:01N 35°29' E 139°42'0 0.0
2017-Dec-11 15:31N 35°29' E 139°42'0 0.0
2017-Dec-11 15:00N 35°29' E 139°42'0 0.0
2017-Dec-11 14:30N 35°29' E 139°42'0 0.0
2017-Dec-11 14:00N 35°29' E 139°42'0 0.0
2017-Dec-11 13:31N 35°29' E 139°42'0 0.0
2017-Dec-11 13:01N 35°29' E 139°42'0 0.0
2017-Dec-11 12:31N 35°29' E 139°42'0 0.0
2017-Dec-11 12:00N 35°29' E 139°42'0 0.0
2017-Dec-11 11:31N 35°29' E 139°42'0 0.0
2017-Dec-11 11:01N 35°29' E 139°42'0 0.0
2017-Dec-11 10:30N 35°29' E 139°42'0 0.0
2017-Dec-11 10:01N 35°29' E 139°42'0 0.0
2017-Dec-11 09:30N 35°29' E 139°42'0 0.0
2017-Dec-11 09:00N 35°29' E 139°42'0 0.0
2017-Dec-11 08:30N 35°29' E 139°42'0 0.0
2017-Dec-11 08:00N 35°29' E 139°42'0 0.0
2017-Dec-11 07:31N 35°29' E 139°42'0 0.0
2017-Dec-11 07:01N 35°29' E 139°42'0 0.0
2017-Dec-11 06:30N 35°29' E 139°42'0 0.0
2017-Dec-11 06:01N 35°29' E 139°42'0 0.0
2017-Dec-11 05:31N 35°29' E 139°42'0 0.0
2017-Dec-11 05:00N 35°29' E 139°42'0 0.0
2017-Dec-11 04:31N 35°29' E 139°42'2 3.1
2017-Dec-11 04:00N 35°30' E 139°43'3 5.3
2017-Dec-11 03:30N 35°31' E 139°46'0 0.0
2017-Dec-11 03:00N 35°31' E 139°46'0 0.0
2017-Dec-11 02:30N 35°31' E 139°46'0 0.0
2017-Dec-11 02:00N 35°31' E 139°46'0 0.0
2017-Dec-11 01:31N 35°31' E 139°46'0 0.0
2017-Dec-11 01:00N 35°31' E 139°46'0 0.0
2017-Dec-11 00:31N 35°31' E 139°46'0 0.0
2017-Dec-11 00:00N 35°31' E 139°46'0 0.0
2017-Dec-10 23:30N 35°31' E 139°46'0 0.0
2017-Dec-10 23:01N 35°31' E 139°46'0 0.5
2017-Dec-10 22:30N 35°31' E 139°46'3 5.5
2017-Dec-10 22:01N 35°29' E 139°49'0 0.2
2017-Dec-10 21:30N 35°29' E 139°49'0 0.0
2017-Dec-10 21:00N 35°29' E 139°49'0 0.0
2017-Dec-10 20:30N 35°29' E 139°49'0 0.0
2017-Dec-10 20:00N 35°29' E 139°49'0 0.0
2017-Dec-10 19:28N 35°29' E 139°49'0 0.1
2017-Dec-10 18:52N 35°29' E 139°49'0 0.0
2017-Dec-10 18:28N 35°29' E 139°49'0 0.0
2017-Dec-10 17:55N 35°29' E 139°49'0 0.0
2017-Dec-10 17:25N 35°29' E 139°49'0 0.0
2017-Dec-10 16:55N 35°29' E 139°49'0 0.0
2017-Dec-10 16:25N 35°29' E 139°49'0 0.0
2017-Dec-10 15:56N 35°29' E 139°49'0 0.0
2017-Dec-10 15:29N 35°29' E 139°49'0 0.0
2017-Dec-10 14:53N 35°29' E 139°49'0 0.0
2017-Dec-10 14:23N 35°29' E 139°49'0 0.0
2017-Dec-10 13:59N 35°29' E 139°49'0 0.0
2017-Dec-10 13:29N 35°29' E 139°49'0 0.0
2017-Dec-10 12:50N 35°29' E 139°49'0 0.0
2017-Dec-10 12:23N 35°29' E 139°49'0 0.0
2017-Dec-10 11:59N 35°29' E 139°49'0 0.0
2017-Dec-10 11:26N 35°29' E 139°49'0 0.0
2017-Dec-10 10:59N 35°29' E 139°49'0 0.0
2017-Dec-10 10:27N 35°29' E 139°49'0 0.0
2017-Dec-10 09:56N 35°29' E 139°49'0 0.0
2017-Dec-10 09:23N 35°29' E 139°49'0 0.0
2017-Dec-10 08:56N 35°29' E 139°49'0 0.3
2017-Dec-10 08:30N 35°29' E 139°49'5 9.1
2017-Dec-10 08:00N 35°32' E 139°53'9 3.4
2017-Dec-10 05:23N 35°41' E 139°56'2 1.8
2017-Dec-10 04:28N 35°39' E 139°58'510.0
2017-Dec-10 03:57N 35°34' E 139°60'510.1
2017-Dec-10 03:30N 35°30' E 140°01'1 1.0
2017-Dec-10 02:57N 35°30' E 140°02'0 0.0
2017-Dec-10 02:30N 35°30' E 140°02'0 0.0
2017-Dec-10 02:00N 35°30' E 140°02'0 0.0
2017-Dec-10 01:30N 35°30' E 140°02'0 0.0
2017-Dec-10 01:00N 35°30' E 140°02'1 2.8
2017-Dec-10 00:30N 35°30' E 140°00'5 9.6
2017-Dec-10 00:00N 35°29' E 139°55'611.8
2017-Dec-09 23:30N 35°27' E 139°48'510.5
2017-Dec-09 23:00N 35°29' E 139°42'0 0.3
2017-Dec-09 22:30N 35°29' E 139°42'0 0.0
2017-Dec-09 22:00N 35°29' E 139°42'0 0.0
2017-Dec-09 21:30N 35°29' E 139°42'0 0.0
2017-Dec-09 21:00N 35°29' E 139°42'0 0.0
2017-Dec-09 20:30N 35°29' E 139°42'0 0.0
2017-Dec-09 20:00N 35°29' E 139°42'0 0.0
2017-Dec-09 19:30N 35°29' E 139°42'0 0.0
2017-Dec-09 19:01N 35°29' E 139°42'0 0.0
2017-Dec-09 18:30N 35°29' E 139°42'0 0.0
2017-Dec-09 18:00N 35°29' E 139°42'0 0.0
2017-Dec-09 17:30N 35°29' E 139°42'0 0.0
2017-Dec-09 17:00N 35°29' E 139°42'0 0.0
2017-Dec-09 16:30N 35°29' E 139°42'0 0.0
2017-Dec-09 16:00N 35°29' E 139°42'0 0.0
2017-Dec-09 15:31N 35°29' E 139°42'0 0.0
2017-Dec-09 15:00N 35°29' E 139°42'0 0.0
2017-Dec-09 14:31N 35°29' E 139°42'0 0.0
2017-Dec-09 14:00N 35°29' E 139°42'0 0.0
2017-Dec-09 13:31N 35°29' E 139°42'0 0.0
2017-Dec-09 13:00N 35°29' E 139°42'0 0.0
2017-Dec-09 12:30N 35°29' E 139°42'0 0.0
2017-Dec-09 12:00N 35°29' E 139°42'0 0.0
2017-Dec-09 11:30N 35°29' E 139°42'0 0.0
2017-Dec-09 11:00N 35°29' E 139°42'0 0.0
2017-Dec-09 10:30N 35°29' E 139°42'0 0.0
2017-Dec-09 10:00N 35°29' E 139°42'0 0.0
2017-Dec-09 09:31N 35°29' E 139°42'0 0.0
2017-Dec-09 09:01N 35°29' E 139°42'0 0.0
2017-Dec-09 08:30N 35°29' E 139°42'0 0.0
2017-Dec-09 08:00N 35°29' E 139°42'0 0.0
2017-Dec-09 07:30N 35°29' E 139°42'0 0.0
2017-Dec-09 07:00N 35°29' E 139°42'0 0.0
2017-Dec-09 06:31N 35°29' E 139°42'0 0.0
2017-Dec-09 06:00N 35°29' E 139°42'0 0.0
2017-Dec-09 05:31N 35°29' E 139°42'0 0.0
2017-Dec-09 05:01N 35°29' E 139°42'0 0.0
2017-Dec-09 04:30N 35°29' E 139°42'0 0.0
2017-Dec-09 04:00N 35°29' E 139°42'0 0.0
2017-Dec-09 03:30N 35°29' E 139°42'0 0.0
2017-Dec-09 03:00N 35°29' E 139°42'1 1.8
2017-Dec-09 02:31N 35°28' E 139°42'510.4
2017-Dec-09 02:00N 35°29' E 139°48'1311.4
2017-Dec-09 00:53N 35°40' E 139°57'1 1.9
2017-Dec-09 00:16N 35°41' E 139°56'0 0.0
2017-Dec-08 23:47N 35°41' E 139°56'3 1.3
2017-Dec-08 21:38N 35°38' E 139°58'1 6.1
2017-Dec-08 21:29N 35°38' E 139°58'3 5.9
2017-Dec-08 20:58N 35°36' E 139°55'0 0.0
2017-Dec-08 20:28N 35°36' E 139°55'0 0.0
2017-Dec-08 08:04N 35°36' E 139°55'0 0.1
2017-Dec-08 07:59N 35°36' E 139°55'3 6.5
2017-Dec-08 07:30N 35°34' E 139°57'510.0
2017-Dec-08 07:00N 35°30' E 140°02'0 0.5
2017-Dec-08 06:30N 35°30' E 140°02'0 0.0
2017-Dec-08 06:00N 35°30' E 140°02'0 0.0
2017-Dec-08 05:30N 35°30' E 140°02'0 0.0
2017-Dec-08 04:59N 35°30' E 140°02'0 0.0
2017-Dec-08 04:29N 35°30' E 140°02'0 0.0
2017-Dec-08 03:58N 35°30' E 140°02'0 0.1
2017-Dec-08 03:30N 35°30' E 140°02'2 3.3
2017-Dec-08 03:00N 35°31' E 140°00'1 2.0
2017-Dec-08 02:29N 35°31' E 139°60'510.5
2017-Dec-08 02:00N 35°37' E 139°59'4 7.4
2017-Dec-08 01:24N 35°41' E 139°56'0 0.0
2017-Dec-08 00:46N 35°41' E 139°56'0 0.0
2017-Dec-08 00:27N 35°41' E 139°56'0 0.0
2017-Dec-07 23:51N 35°41' E 139°56'1 0.6
2017-Dec-07 22:56N 35°40' E 139°57'  

Dump ship's entire track history